Terminal Aerodrome Forecast
Issued by NWS

Home | Current Version | Previous Version | Text Only | Print | Product List | Glossary On
Versions: 1 2 3 4 5 6 7 8 9 10 11 12 13 14 15 16 17 18 19 20 21 22 23 24 25 26 27 28
000
FTUS42 KJAX 261721
TAFVQQ
TAF
KVQQ 261721Z 2618/2718 28012KT P6SM SCT250
     FM262100 27010KT P6SM VCSH BKN040
     FM270000 24006KT P6SM SCT250
     FM270900 VRB03KT P6SM BKN250
     FM271600 33006KT P6SM VCSH BKN050=

USA.gov is the U.S. government's official web portal to all federal, state and local government web resources and services.